Flight Track Log - Related Links

Times and Time Zones

All times are in EDT time to prevent confusion due to time zone crossing. See the EMD21 flight status page for this flight to view local times or setup timezone preferences in your user account.


Time Position Orientation Groundspeed Altitude Reporting Facility
EDT Latitude Longitude Course Direction KTS MPH feet Rate Location/Type
Tue 11:18:49 AM 34.0092 -96.4889 325° Northwest 130 150 5,100  Level Fort Worth Center
Tue 11:19:49 AM 34.0492 -96.5186 328° Northwest 146 168 6,400 1,300 Climbing Fort Worth Center
Tue 11:20:49 AM 34.0953 -96.5533 328° Northwest 168 193 7,700 800 Climbing Fort Worth Center
Tue 11:21:49 AM 34.1308 -96.5781 330° Northwest 180 207 8,000 150 Climbing Fort Worth Center
Tue 11:22:49 AM 34.1958 -96.6250 329° Northwest 194 223 8,000  Level Fort Worth Center
Tue 11:23:00 AM 34.1734 -96.5500 325° Northwest  Level FlightAware Approximate
Tue 11:23:49 AM 34.2525 -96.6672 328° Northwest 221 254 8,000  Level Fort Worth Center
Tue 11:24:00 AM 34.2190 -96.5880 325° Northwest  Level FlightAware Approximate
Tue 11:24:49 AM 34.3069 -96.7094 327° Northwest 233 268 8,000  Level Fort Worth Center
Tue 11:25:49 AM 34.3636 -96.7519 328° Northwest 233 268 8,000  Level Fort Worth Center
Tue 11:26:49 AM 34.4222 -96.7917 331° Northwest 233 268 8,000  Level Fort Worth Center
Tue 11:27:49 AM 34.4767 -96.8342 327° Northwest 233 268 8,000  Level Fort Worth Center
Tue 11:28:49 AM 34.5289 -96.8817 323° Northwest 233 268 8,000  Level Fort Worth Center
Tue 11:29:49 AM 34.5875 -96.9217 331° Northwest 238 274 8,000  Level Fort Worth Center
Tue 11:30:49 AM 34.6461 -96.9642 329° Northwest 233 268 8,000  Level Fort Worth Center
Tue 11:31:49 AM 34.7006 -97.0094 326° Northwest 233 268 8,000  Level Fort Worth Center
Tue 11:32:49 AM 34.7592 -97.0494 331° Northwest 238 274 8,000  Level Fort Worth Center
Tue 11:33:20 AM 34.7842 -97.0697 326° Northwest 238 274 8,000  Level Fort Worth Center
Tue 11:33:49 AM 34.8114 -97.0897 329° Northwest 233 268 8,000  Level Fort Worth Center
Tue 11:34:20 AM 34.8428 -97.1175 324° Northwest 238 274 8,000  Level Fort Worth Center
Tue 11:34:49 AM 34.8678 -97.1353 330° Northwest 233 268 8,000 -247 Level Fort Worth Center
Tue 11:35:33 AM 34.9094 -97.1653 329° Northwest 243 280 7,700 -300 Descending Fort Worth Center
Tue 11:35:49 AM 34.9264 -97.1756 334° Northwest 238 274 7,700 -367 Level Fort Worth Center
Tue 11:36:22 AM 34.9575 -97.2033 324° Northwest 245 282 7,400 -600 Descending Fort Worth Center
Tue 11:36:49 AM 34.9828 -97.2208 330° Northwest 238 274 7,100 -590 Descending Fort Worth Center
Tue 11:37:23 AM 35.0139 -97.2514 321° Northwest 246 283 6,800 -400 Descending Fort Worth Center
Tue 11:37:49 AM 35.0411 -97.2664 336° Northwest 238 274 6,700 -537 Descending Fort Worth Center
Tue 11:38:30 AM 35.0786 -97.2969 326° Northwest 251 289 6,200 -600 Descending Fort Worth Center
Tue 11:38:49 AM 35.1017 -97.3119 332° Northwest 243 280 6,100 -100 Descending Fort Worth Center
Tue 11:39:30 AM 35.1414 -97.3475 324° Northwest 249 287 6,100  Level Fort Worth Center
Tue 11:39:49 AM 35.1581 -97.3578 333° Northwest 243 280 6,100  Level Fort Worth Center
Tue 11:40:31 AM 35.1978 -97.3933 324° Northwest 238 274 6,100  Level Fort Worth Center
Tue 11:40:49 AM 35.2144 -97.4008 340° North 243 280 6,100  Level Fort Worth Center
Tue 11:41:32 AM 35.2561 -97.4339 327° Northwest 239 275 6,100 -200 Level Fort Worth Center
Tue 11:41:49 AM 35.2728 -97.4442 333° Northwest 243 280 5,900 -885 Descending Fort Worth Center
Tue 11:42:33 AM 35.3103 -97.4797 322° Northwest 251 289 5,200 -800 Descending Fort Worth Center
Tue 11:42:49 AM 35.3250 -97.4872 337° Northwest 243 280 5,100 -689 Descending Fort Worth Center
Tue 11:43:34 AM 35.3708 -97.5181 331° Northwest 245 282 4,500 -700 Descending Fort Worth Center
Tue 11:43:49 AM 35.3833 -97.5256 334° Northwest 243 280 4,400 -700 Descending Fort Worth Center
Tue 11:44:34 AM 35.4333 -97.5536 335° Northwest 232 267 3,800 -700 Descending Fort Worth Center
Tue 11:44:49 AM 35.4436 -97.5614 328° Northwest 243 280 3,700 -740 Descending Fort Worth Center
Tue 11:45:47 AM 35.5042 -97.5997 333° Northwest 224 258 2,900 -605 Descending Fort Worth Center
Tue 11:46:48 AM 35.5519 -97.6153 345° North 171 197 2,500 -595 Descending Fort Worth Center
Tue 11:47:48 AM 35.5583 -97.6508 282° West 111 128 1,700 -800 Descending Fort Worth Center
Tue 11:49:00 AM 35.5333 -97.6333 141° Southeast  Level FlightAware Approximate
Tue 11:56:00 AM 35.5342 -97.6471 141° Southeast  Level Estimated

Login

Don't have an account? Register now (free) for customized features, flight alerts, and more!